Disclaimer

Please do not use the information listed here in-flight or in-navigation, as they are not provided to us by the airports but are provided by volunteers, so they might be outdated.

Search


Regions


Airport information page

Radio informations:
Tower (TWR) - 281.325 MHz
Ground (GND) - 278.5 MHz
WADDINGTON APP - 250.85 MHz

Airport informations:
Latitude: 53° 18' 28.00" N
Longitude: 000° 33' 03.00" W
Elevation: 202 feet - 62 meters
Operating hours: Remarks
Operating agency: Military
Timezone: UTC 0(+1DT) - Last Sunday in March to last Sunday in October
Fuel: Jet A1+, Jet A1 with icing inhibitor.

Runway information:
04/22 - 8990 x 200 feet< - >2740 x 61 meters

Recent METARs:
EGXP 201350Z 08016KT 9000 SHRA BKN015 BKN030 05/04 Q1010 WHT
EGXP 201350Z 08016KT 9000 SHRA BKN015 BKN030 05/04 Q1010 WHT
EGXP 201450Z 09015KT 9999 -RA FEW035 BKN050 05/03 Q1009 BLU

Airport on the map: